עמוד ראשי
METAR-TAF:

METAR-TAF

שדות תעופה :

Lossiemouth, סקוטלנד

קו רוחב: 57-43N, קו אורך: 003-19W, גובה: 13מטר

תצפית מזג אוויר נוכחית

הדו"ח נערך לפני 16דקות, בשעה 09:50 UTC
רוח 6קשר מכיוון מערב/דרום-מערב
טמפרטורת 14 צלסיוס
לחות 72%
לחץ 1020 hPa
ראות 10 קילומטר או יותר
מעט עננים בגובה 4000רגל
עננים בינוניים בגובה 7900רגל

METAR: EGQS 190950Z 25006KT 9999 FEW040 BKN079 14/09 Q1020 NOSIG RMK BLU BLU

זמן: 11:06 (10:06 UTC)

תחזית

הדו"ח נערך לפני 2 שעות ו 44דקות, בשעה 07:22 UTC
תחזית בתוקף מ 19 ב 09 UTC עד 20 ב 03 UTC
רוח 8קשר מכיוון מערב/דרום-מערב
ראות 10 קילומטר או יותר
מעט עננים בגובה 4800רגל
הסתברות 40% :
זמנית מ -
19 ב 17 UTC עד 20 ב 01 UTC
רוח 15קשר מכיוון מערב/דרום-מערב עם משבים עד 25קשר
הסתברות 30% :
זמנית מ -
19 ב 21 UTC עד 20 ב 03 UTC
עננים פזורים בגובה 2000רגל

TAF: EGQS 190722Z 1909/2003 25008KT 9999 FEW048 PROB40 TEMPO 1917/2001 25015G25KT PROB30 TEMPO 1921/2003 SCT020

תצפיות ותחזיות מזג אוויר לגבי יותר מ- 4,000 שדות תעופה ברחבי העולם. דוחות METAR ו- TAF.

התחנות הזמינות מסומנות בנקודות צהובות ואדומות על גבי המפה.

העבר את העכבר לנקודה הצבעונית על מנת לראות את שם התחנה.

לאחר מכן, לחץ כדי לראות את תוכן ואת תחזיות מזג האוויר.

כדי לשנות את המפה: לחץ על הכפתורים הירוקים עם הפלוס השחור כדי להתקרב; על הכפתור הירוק עם המקף כדי להתרחק; או בחיצים הירוקים למפות סמוכות.


METAR-TAF: